Time;durP1;ratioP1;P1;durP2;ratioP2;P2;SDS_P1;SDS_P2;PMS_P1;PMS_P2;Temp;Humidity;BMP_temperature;BMP_pressure;BME280_temperature;BME280_humidity;BME280_pressure;Samples;Min_cycle;Max_cycle;Signal;HPM_P1;HPM_P2
2023/06/15 00:01:58;;;;;;;4.90;2.90;;;;;;;24.27;84.94;97919.94;4979131;28;20082;-68
2023/06/15 00:04:27;;;;;;;6.53;3.10;;;;;;;24.39;84.27;97936.47;4963136;28;20410;-69
2023/06/15 00:06:56;;;;;;;7.50;3.20;;;;;;;24.32;84.60;97917.94;4975182;28;20050;-68
2023/06/15 00:09:26;;;;;;;7.07;3.58;;;;;;;24.13;86.22;97915.28;4976142;28;20529;-68
2023/06/15 00:11:55;;;;;;;9.20;3.55;;;;;;;23.46;90.74;97915.94;4974161;28;20067;-68
2023/06/15 00:14:25;;;;;;;9.73;3.58;;;;;;;23.24;92.48;97944.34;4974044;28;20542;-68
2023/06/15 00:16:54;;;;;;;6.60;3.90;;;;;;;23.22;92.60;97962.75;4972691;28;20157;-67
2023/06/15 00:19:24;;;;;;;10.63;4.28;;;;;;;23.02;93.85;97960.31;4951168;28;20742;-67
2023/06/15 00:21:54;;;;;;;8.52;3.95;;;;;;;22.95;95.57;97932.06;4972924;28;20608;-67
2023/06/15 00:24:24;;;;;;;8.60;3.30;;;;;;;23.86;92.04;97909.84;4967776;28;20043;-67
2023/06/15 00:26:53;;;;;;;6.35;3.10;;;;;;;24.29;87.40;97912.34;4963728;28;20066;-67
2023/06/15 00:29:23;;;;;;;7.45;3.28;;;;;;;24.45;86.24;97924.47;4965418;28;20043;-65
2023/06/15 00:31:52;;;;;;;7.50;3.55;;;;;;;24.32;86.22;97922.56;4949179;28;20104;-67
2023/06/15 00:34:23;;;;;;;6.47;3.08;;;;;;;24.37;86.24;97892.69;4973943;28;20054;-67
2023/06/15 00:36:52;;;;;;;8.57;3.85;;;;;;;24.39;86.30;97882.34;4966036;28;20054;-68
2023/06/15 00:39:21;;;;;;;7.53;2.92;;;;;;;24.29;86.66;97855.50;4958580;28;20046;-68
2023/06/15 00:41:50;;;;;;;7.53;3.25;;;;;;;24.35;86.59;97851.56;4946697;29;20047;-68
2023/06/15 00:44:20;;;;;;;6.93;3.05;;;;;;;24.45;86.11;97883.84;4958369;28;20084;-68
2023/06/15 00:46:49;;;;;;;5.90;3.25;;;;;;;24.32;86.88;97900.91;4963635;28;20871;-68
2023/06/15 00:49:21;;;;;;;5.68;3.13;;;;;;;24.41;87.01;97937.00;4957313;28;20534;-66
2023/06/15 00:51:52;;;;;;;5.55;2.95;;;;;;;24.51;87.46;97953.06;4964227;28;20065;-67
2023/06/15 00:54:24;;;;;;;7.88;3.45;;;;;;;24.51;87.33;97974.72;4956775;28;21546;-67
2023/06/15 00:56:54;;;;;;;8.93;3.55;;;;;;;24.52;87.34;97979.81;4960713;28;20039;-67
2023/06/15 00:59:25;;;;;;;12.35;3.47;;;;;;;24.38;87.73;97965.47;4955950;28;20049;-67
2023/06/15 01:01:54;;;;;;;7.13;3.35;;;;;;;24.50;87.45;97965.78;4931536;28;20418;-66
2023/06/15 01:04:24;;;;;;;10.85;3.95;;;;;;;24.48;87.31;97976.09;4957500;28;20640;-66
2023/06/15 01:07:01;;;;;;;14.88;4.30;;;;;;;23.92;90.27;97967.38;4959895;28;20062;-67
2023/06/15 01:09:36;;;;;;;9.20;3.90;;;;;;;23.28;95.22;97966.16;4955796;28;20035;-68
2023/06/15 01:12:11;;;;;;;11.43;4.57;;;;;;;22.98;99.66;97921.47;4955481;28;20043;-67
2023/06/15 01:14:41;;;;;;;12.18;4.43;;;;;;;22.95;99.92;97913.97;4962580;28;20602;-67
2023/06/15 01:17:23;;;;;;;13.20;4.45;;;;;;;22.92;100.00;97919.16;4956035;28;20062;-67
2023/06/15 01:20:07;;;;;;;11.82;4.65;;;;;;;22.56;100.00;97892.59;4951008;28;20054;-67
2023/06/15 01:22:49;;;;;;;9.93;4.35;;;;;;;23.68;97.23;97894.47;4948516;28;20105;-67
2023/06/15 01:25:33;;;;;;;8.75;4.10;;;;;;;24.08;91.91;97874.81;4949061;28;20079;-68
2023/06/15 01:28:05;;;;;;;;;;;;;;;24.03;90.58;97844.38;4957759;28;20042;-67
2023/06/15 01:30:53;;;;;;;9.15;3.83;;;;;;;24.32;89.03;97815.09;4959746;28;19973;-67
2023/06/15 01:33:23;;;;;;;8.63;3.53;;;;;;;24.37;87.48;97796.06;4957278;28;20059;-67
2023/06/15 01:35:53;;;;;;;9.15;3.25;;;;;;;24.40;87.02;97789.22;4959440;28;20043;-67
2023/06/15 01:38:26;;;;;;;10.73;3.75;;;;;;;24.23;88.32;97792.56;4955359;28;20404;-67
2023/06/15 01:40:57;;;;;;;8.00;3.15;;;;;;;24.44;88.23;97804.53;4940066;29;20043;-67
2023/06/15 01:43:30;;;;;;;8.35;3.00;;;;;;;24.32;89.22;97790.75;4941840;28;20059;-67
2023/06/15 01:46:01;;;;;;;7.30;3.15;;;;;;;24.23;90.17;97772.81;4944400;29;20077;-66
2023/06/15 01:48:31;;;;;;;7.53;3.45;;;;;;;24.13;90.27;97744.84;4938271;29;20134;-67
2023/06/15 01:51:03;;;;;;;10.93;3.58;;;;;;;24.30;89.30;97735.28;4942748;28;20048;-67
2023/06/15 01:53:32;;;;;;;6.57;3.17;;;;;;;24.10;89.38;97737.34;4940068;29;20054;-67
2023/06/15 01:56:02;;;;;;;10.48;2.83;;;;;;;24.25;89.30;97751.69;4935340;29;20220;-67
2023/06/15 01:58:31;;;;;;;6.22;2.95;;;;;;;24.24;89.58;97752.78;4940998;29;20051;-67
2023/06/15 02:01:01;;;;;;;7.90;3.10;;;;;;;24.39;89.48;97771.38;4942165;29;20399;-67
2023/06/15 02:03:31;;;;;;;5.20;2.90;;;;;;;24.51;88.63;97802.25;4939353;29;20059;-66
2023/06/15 02:06:00;;;;;;;6.20;2.95;;;;;;;24.51;88.73;97853.69;4946756;29;20060;-67
2023/06/15 02:08:30;;;;;;;7.18;3.30;;;;;;;24.49;88.11;97861.28;4938498;29;20040;-67
2023/06/15 02:11:00;;;;;;;6.32;3.33;;;;;;;24.49;87.89;97863.19;4945573;29;20047;-67
2023/06/15 02:13:29;;;;;;;6.03;3.30;;;;;;;24.44;87.36;97872.22;4948408;29;20051;-67
2023/06/15 02:15:59;;;;;;;8.13;3.65;;;;;;;24.38;87.98;97837.47;4938404;29;20130;-67
2023/06/15 02:18:30;;;;;;;6.95;3.63;;;;;;;24.59;88.09;97871.91;4946701;29;20046;-67
2023/06/15 02:21:00;;;;;;;6.45;3.60;;;;;;;24.48;88.32;97820.97;4946653;29;20047;-67
2023/06/15 02:23:29;;;;;;;7.07;3.53;;;;;;;24.57;88.39;97819.16;4955427;28;20117;-67
2023/06/15 02:25:59;;;;;;;6.70;3.95;;;;;;;24.48;89.02;97799.31;4948943;29;20071;-67
2023/06/15 02:28:31;;;;;;;6.13;3.90;;;;;;;24.53;89.19;97767.53;4938849;28;20491;-67
2023/06/15 02:31:00;;;;;;;6.93;3.50;;;;;;;24.54;88.76;97755.59;4939145;29;20129;-66
2023/06/15 02:33:32;;;;;;;6.10;3.38;;;;;;;24.60;88.33;97770.63;4938847;29;20051;-68
2023/06/15 02:36:03;;;;;;;6.97;3.80;;;;;;;24.66;87.67;97790.25;4945153;28;20054;-68
2023/06/15 02:38:33;;;;;;;6.65;3.90;;;;;;;24.47;88.10;97795.81;4942631;28;20475;-68
2023/06/15 02:41:02;;;;;;;6.85;3.70;;;;;;;24.65;87.81;97834.69;4964254;28;20149;-67
2023/06/15 02:43:31;;;;;;;8.07;4.15;;;;;;;24.60;87.88;97853.78;4967501;28;20125;-67
2023/06/15 02:46:00;;;;;;;6.15;3.38;;;;;;;24.70;88.99;97879.81;4962363;28;20053;-67
2023/06/15 02:48:30;;;;;;;5.57;3.83;;;;;;;24.59;88.81;97874.63;4984718;28;20053;-67
2023/06/15 02:51:00;;;;;;;7.78;4.10;;;;;;;24.73;87.81;97873.78;4968650;28;20042;-67
2023/06/15 02:53:29;;;;;;;10.85;4.05;;;;;;;24.71;88.13;97892.25;4967511;28;20043;-67
2023/06/15 02:56:02;;;;;;;7.68;4.45;;;;;;;24.55;89.11;97867.41;4969859;28;20038;-67
2023/06/15 02:58:37;;;;;;;12.18;4.70;;;;;;;24.50;90.16;97837.72;4980076;28;20549;-67
2023/06/15 03:01:16;;;;;;;7.22;3.95;;;;;;;24.57;88.31;97840.81;4965767;28;20069;-67
2023/06/15 03:03:53;;;;;;;6.80;3.25;;;;;;;24.44;85.90;97787.50;4976645;28;20462;-67
2023/06/15 03:06:25;;;;;;;5.53;3.17;;;;;;;24.53;86.10;97777.56;4983052;28;20042;-67
2023/06/15 03:08:57;;;;;;;6.35;3.65;;;;;;;24.55;85.58;97803.22;4966952;28;20067;-67
2023/06/15 03:11:30;;;;;;;7.28;4.07;;;;;;;24.55;84.87;97807.84;4979221;28;20141;-67
2023/06/15 03:14:04;;;;;;;6.40;3.22;;;;;;;24.59;85.37;97844.84;4957402;28;20060;-67
2023/06/15 03:16:46;;;;;;;6.72;3.55;;;;;;;24.60;86.41;97829.41;4953732;28;20094;-68
2023/06/15 03:19:16;;;;;;;6.40;3.53;;;;;;;24.63;86.83;97879.44;4950445;28;20356;-68
2023/06/15 03:21:49;;;;;;;5.80;3.50;;;;;;;24.41;88.11;97828.72;4979761;28;20138;-67
2023/06/15 03:24:21;;;;;;;7.53;3.92;;;;;;;24.31;88.96;97804.56;4968722;28;20058;-66
2023/06/15 03:26:50;;;;;;;6.13;3.83;;;;;;;24.41;89.41;97872.03;4972229;28;20038;-67
2023/06/15 03:29:24;;;;;;;7.88;3.90;;;;;;;24.02;89.38;97837.34;4947885;28;20138;-68
2023/06/15 03:31:54;;;;;;;7.35;3.80;;;;;;;24.15;90.68;97839.25;4929208;28;20048;-68
2023/06/15 03:34:25;;;;;;;11.85;4.53;;;;;;;24.35;90.65;97857.78;4946566;28;20042;-67
2023/06/15 03:36:55;;;;;;;9.10;4.05;;;;;;;24.35;90.39;97860.50;4966130;28;20534;-67
2023/06/15 03:39:25;;;;;;;10.88;3.88;;;;;;;24.35;89.81;97852.38;4961517;28;20078;-66
2023/06/15 03:41:54;;;;;;;7.00;3.15;;;;;;;24.34;89.15;97850.78;4957540;28;20058;-66
2023/06/15 03:44:24;;;;;;;6.32;3.78;;;;;;;24.49;89.62;97892.97;4968152;28;20050;-66
2023/06/15 03:46:53;;;;;;;8.05;3.88;;;;;;;24.52;91.12;97914.03;4965051;28;20053;-67
2023/06/15 03:49:23;;;;;;;6.72;4.55;;;;;;;24.58;91.52;97883.03;4965964;28;20050;-68
2023/06/15 03:51:53;;;;;;;8.82;4.30;;;;;;;24.54;89.25;97861.19;4943976;28;20070;-67
2023/06/15 03:54:23;;;;;;;8.48;4.10;;;;;;;24.62;88.49;97905.69;4956444;28;20128;-67
2023/06/15 03:56:52;;;;;;;9.35;4.63;;;;;;;24.52;87.11;97917.53;4962820;28;20554;-66
2023/06/15 03:59:23;;;;;;;10.63;5.05;;;;;;;24.50;85.95;97937.91;4961507;28;20061;-66
2023/06/15 04:01:53;;;;;;;11.82;5.40;;;;;;;24.44;85.35;97977.00;4967165;28;20051;-68
2023/06/15 04:04:23;;;;;;;10.32;5.07;;;;;;;24.44;83.63;97966.16;4954009;28;20051;-67
2023/06/15 04:06:56;;;;;;;9.88;4.85;;;;;;;24.52;84.05;97965.47;4971247;28;20047;-68
2023/06/15 04:09:30;;;;;;;8.68;5.22;;;;;;;24.50;82.13;97951.44;4969889;28;20065;-68
2023/06/15 04:12:00;;;;;;;8.20;4.00;;;;;;;24.41;80.72;97950.53;4937629;28;20156;-67
2023/06/15 04:14:30;;;;;;;11.68;4.30;;;;;;;24.20;79.85;97957.44;4936286;28;20050;-67
2023/06/15 04:17:00;;;;;;;10.02;3.55;;;;;;;24.04;78.26;97908.16;4949658;28;20460;-67
2023/06/15 04:19:30;;;;;;;7.85;2.50;;;;;;;23.97;80.03;97894.25;4949073;28;20057;-68
2023/06/15 04:22:00;;;;;;;10.90;2.88;;;;;;;24.08;81.26;97964.09;4960384;28;20477;-69
2023/06/15 04:24:31;;;;;;;10.70;4.10;;;;;;;24.11;81.37;97971.63;4970233;28;20046;-68
2023/06/15 04:27:01;;;;;;;6.57;2.75;;;;;;;24.01;82.10;97955.56;4951716;28;20129;-69
2023/06/15 04:29:30;;;;;;;8.48;3.00;;;;;;;23.95;81.79;97951.34;4935046;28;20057;-69
2023/06/15 04:32:00;;;;;;;4.85;2.30;;;;;;;23.70;80.51;97922.03;4947981;28;20045;-66
2023/06/15 04:34:31;;;;;;;7.50;2.47;;;;;;;23.73;81.28;97940.34;4976222;28;20063;-68
2023/06/15 04:37:01;;;;;;;7.00;2.45;;;;;;;23.75;83.03;97953.59;4960734;28;20660;-68
2023/06/15 04:39:32;;;;;;;6.15;2.13;;;;;;;23.65;82.06;97938.34;4953463;28;20386;-67
2023/06/15 04:42:04;;;;;;;6.05;2.30;;;;;;;23.51;81.60;97922.06;4968484;28;20055;-68
2023/06/15 04:44:35;;;;;;;7.82;2.20;;;;;;;23.62;82.40;97895.69;4951508;28;20053;-69
2023/06/15 04:47:07;;;;;;;5.50;2.30;;;;;;;23.50;83.92;97865.63;4946039;28;20133;-68
2023/06/15 04:49:36;;;;;;;4.90;2.70;;;;;;;23.38;85.00;97811.97;4956043;28;20431;-67
2023/06/15 04:52:06;;;;;;;3.83;2.42;;;;;;;23.21;83.79;97736.09;4968569;28;20046;-68
2023/06/15 04:54:39;;;;;;;8.13;2.47;;;;;;;23.06;85.36;97645.31;4939527;28;20668;-67
2023/06/15 04:57:09;;;;;;;10.95;2.90;;;;;;;23.20;84.93;97665.03;4950741;28;20288;-67
2023/06/15 04:59:51;;;;;;;4.78;2.60;;;;;;;23.39;85.22;97678.47;4590300;28;10000379;-67
2023/06/15 05:02:35;;;;;;;8.45;3.03;;;;;;;23.50;85.37;97676.41;4949519;28;20050;-68
2023/06/15 05:05:05;;;;;;;7.95;2.88;;;;;;;23.67;84.63;97749.59;4617932;28;9999794;-67
2023/06/15 05:07:35;;;;;;;7.22;3.63;;;;;;;23.88;85.34;97923.88;4951816;28;20039;-66
2023/06/15 05:10:07;;;;;;;9.82;5.35;;;;;;;23.79;84.94;97930.25;4956834;28;20047;-68
2023/06/15 05:12:37;;;;;;;8.68;4.55;;;;;;;23.90;81.66;97927.06;4951757;28;20057;-68
2023/06/15 05:15:07;;;;;;;6.32;3.40;;;;;;;24.10;82.48;97906.97;4953465;28;20045;-67
2023/06/15 05:17:37;;;;;;;11.65;4.63;;;;;;;24.11;78.06;97901.28;4939595;28;20078;-68
2023/06/15 05:20:08;;;;;;;7.43;4.30;;;;;;;24.32;79.63;97895.50;4960364;28;20051;-67
2023/06/15 05:22:37;;;;;;;9.13;4.00;;;;;;;24.63;81.22;97895.66;4960078;28;20074;-67
2023/06/15 05:25:07;;;;;;;9.48;5.80;;;;;;;24.71;77.98;97887.63;4956405;28;20042;-69
2023/06/15 05:27:37;;;;;;;8.02;5.68;;;;;;;24.89;78.34;97880.50;4938589;28;20057;-68
2023/06/15 05:30:07;;;;;;;15.45;6.68;;;;;;;25.04;78.92;97880.16;4965493;28;20051;-69
2023/06/15 05:32:38;;;;;;;11.30;6.28;;;;;;;25.16;78.52;97866.06;4954200;28;20042;-68
2023/06/15 05:35:11;;;;;;;9.52;6.40;;;;;;;25.37;78.40;97878.81;4939620;28;20057;-68
2023/06/15 05:37:40;;;;;;;13.65;7.40;;;;;;;25.47;77.62;97878.56;4932549;28;20805;-69
2023/06/15 05:40:13;;;;;;;11.60;6.93;;;;;;;25.69;77.70;97876.97;4939962;28;20047;-70
2023/06/15 05:42:43;;;;;;;12.77;8.25;;;;;;;25.78;78.45;97881.34;4947433;28;20058;-69
2023/06/15 05:45:14;;;;;;;16.05;8.85;;;;;;;25.83;79.02;97907.53;4955302;28;20125;-68
2023/06/15 05:47:47;;;;;;;21.02;9.25;;;;;;;25.84;79.63;97930.84;4931218;29;20047;-68
2023/06/15 05:50:19;;;;;;;16.25;10.48;;;;;;;25.81;79.12;97937.69;4953259;28;20150;-68
2023/06/15 05:52:50;;;;;;;17.52;10.80;;;;;;;25.79;79.31;97939.94;4959595;28;20043;-68
2023/06/15 05:55:20;;;;;;;22.58;12.13;;;;;;;25.80;80.52;97930.66;4964652;28;20062;-68
2023/06/15 05:57:51;;;;;;;18.77;12.13;;;;;;;25.76;79.99;97918.81;4937938;28;20124;-69
2023/06/15 06:00:22;;;;;;;20.15;11.55;;;;;;;25.76;81.63;97928.88;4958215;28;20144;-70
2023/06/15 06:02:56;;;;;;;20.90;11.88;;;;;;;25.70;81.37;97917.38;4961207;28;20050;-69
2023/06/15 06:05:48;;;;;;;17.48;11.18;;;;;;;25.73;82.31;97935.72;4963279;28;20199;-70
2023/06/15 06:08:21;;;;;;;22.55;10.45;;;;;;;25.75;82.29;97933.53;4949041;28;20083;-69
2023/06/15 06:10:50;;;;;;;17.67;9.65;;;;;;;25.82;83.11;97946.63;4950985;28;20112;-69
2023/06/15 06:13:41;;;;;;;19.38;9.20;;;;;;;25.84;84.60;97949.84;4948514;28;20134;-68
2023/06/15 06:16:14;;;;;;;16.63;7.97;;;;;;;25.84;83.90;97958.78;4932835;28;20051;-69
2023/06/15 06:18:44;;;;;;;12.00;6.30;;;;;;;25.78;80.51;97938.31;4945885;28;20051;-68
2023/06/15 06:21:13;;;;;;;14.73;5.85;;;;;;;25.75;81.66;97930.81;4944181;28;20432;-70
2023/06/15 06:23:45;;;;;;;8.57;5.32;;;;;;;25.75;83.55;97928.09;4958063;28;20834;-68
2023/06/15 06:26:14;;;;;;;8.85;5.90;;;;;;;25.72;83.77;97925.97;4951586;28;20043;-69
2023/06/15 06:28:44;;;;;;;12.38;6.30;;;;;;;25.71;82.35;97937.94;4949373;28;20057;-70
2023/06/15 06:31:13;;;;;;;10.85;5.30;;;;;;;25.68;81.87;97930.44;4942517;28;20078;-69
2023/06/15 06:33:42;;;;;;;10.30;5.85;;;;;;;25.69;80.46;97945.59;4948964;28;20051;-69
2023/06/15 06:36:12;;;;;;;12.40;6.78;;;;;;;25.69;77.87;97929.31;4941839;28;20050;-68
2023/06/15 06:38:41;;;;;;;16.58;7.82;;;;;;;25.69;76.35;97942.88;4952173;28;20530;-69
2023/06/15 06:41:29;;;;;;;16.00;8.77;;;;;;;25.77;79.17;97958.41;4930070;29;20071;-69
2023/06/15 06:43:58;;;;;;;14.13;8.90;;;;;;;25.78;79.34;97964.63;4944433;28;20131;-68
2023/06/15 06:46:28;;;;;;;14.77;7.82;;;;;;;25.79;80.51;97987.97;4926839;29;20055;-69
2023/06/15 06:48:57;;;;;;;14.00;7.43;;;;;;;25.68;76.79;97954.84;4936526;28;20039;-69
2023/06/15 06:51:26;;;;;;;16.05;7.72;;;;;;;25.68;77.73;97911.44;4933650;29;20630;-69
2023/06/15 06:53:56;;;;;;;14.43;7.72;;;;;;;25.78;78.99;97941.03;4920890;29;20063;-69
2023/06/15 06:56:26;;;;;;;13.93;8.38;;;;;;;25.82;79.89;97974.56;4929628;29;20071;-71
2023/06/15 06:58:56;;;;;;;15.02;7.35;;;;;;;25.83;80.95;97973.47;4931898;28;20051;-70
2023/06/15 07:01:25;;;;;;;14.73;7.53;;;;;;;25.82;80.10;97962.91;4927227;29;20047;-68
2023/06/15 07:03:54;;;;;;;14.43;6.97;;;;;;;25.57;76.91;97925.56;4935911;28;20054;-68
2023/06/15 07:06:24;;;;;;;16.05;6.32;;;;;;;25.82;79.01;97941.22;4932564;28;20059;-68
2023/06/15 07:08:54;;;;;;;12.85;6.32;;;;;;;25.79;77.93;97936.41;4930463;29;20536;-68
2023/06/15 07:11:23;;;;;;;15.63;7.18;;;;;;;25.89;81.05;97952.44;4932131;29;20144;-68
2023/06/15 07:13:53;;;;;;;16.17;7.40;;;;;;;25.94;80.29;97947.66;4940956;28;20115;-68
2023/06/15 07:16:22;;;;;;;12.57;7.15;;;;;;;25.96;81.15;97949.28;4925933;29;20756;-69
2023/06/15 07:18:55;;;;;;;16.10;7.68;;;;;;;25.90;80.77;97948.59;4929584;28;20075;-69
2023/06/15 07:21:24;;;;;;;17.88;8.75;;;;;;;25.83;81.66;97948.25;4932432;29;20056;-69
2023/06/15 07:23:54;;;;;;;17.70;10.75;;;;;;;25.85;81.58;97949.53;4930312;29;20158;-71
2023/06/15 07:26:23;;;;;;;21.35;13.07;;;;;;;25.86;79.06;97958.47;4930096;29;20085;-72
2023/06/15 07:28:53;;;;;;;25.55;15.32;;;;;;;25.81;77.44;97939.59;4926199;29;20056;-68
2023/06/15 07:31:22;;;;;;;24.23;16.10;;;;;;;25.76;77.62;97904.44;4925678;29;20106;-69
2023/06/15 07:33:54;;;;;;;21.70;14.80;;;;;;;25.95;79.13;97934.91;4937976;29;20760;-70
2023/06/15 07:36:24;;;;;;;25.35;15.20;;;;;;;26.04;79.37;97921.38;4932751;28;20706;-70
2023/06/15 07:38:53;;;;;;;26.95;15.70;;;;;;;26.08;79.09;97903.34;4932635;28;20060;-72
2023/06/15 07:41:23;;;;;;;21.58;14.90;;;;;;;26.11;79.06;97902.75;4967592;28;20113;-70
2023/06/15 07:43:53;;;;;;;26.60;16.08;;;;;;;26.11;78.67;97895.38;4963811;28;20382;-71
2023/06/15 07:46:22;;;;;;;25.35;16.30;;;;;;;26.10;79.86;97884.84;4965216;28;20359;-70
2023/06/15 07:48:52;;;;;;;25.45;15.40;;;;;;;26.12;78.20;97856.28;4972974;28;20050;-71
2023/06/15 07:51:21;;;;;;;27.05;14.77;;;;;;;26.19;77.97;97842.25;4955390;28;20116;-70
2023/06/15 07:54:07;;;;;;;25.40;15.45;;;;;;;26.17;77.27;97825.47;4964157;28;20046;-70
2023/06/15 07:56:37;;;;;;;32.35;18.13;;;;;;;26.08;76.83;97824.66;4964711;28;20058;-70
2023/06/15 07:59:06;;;;;;;35.70;18.50;;;;;;;26.25;77.44;97838.28;4964832;28;20047;-70
2023/06/15 08:01:36;;;;;;;29.95;20.15;;;;;;;26.33;79.94;97840.25;4971103;28;20534;-69
2023/06/15 08:04:05;;;;;;;30.15;20.90;;;;;;;26.29;78.70;97828.41;4969232;28;20407;-69
2023/06/15 08:06:35;;;;;;;32.95;21.92;;;;;;;26.37;78.92;97881.97;4970353;28;20056;-70
2023/06/15 08:09:04;;;;;;;32.33;21.35;;;;;;;26.39;79.79;97893.28;4968797;28;20061;-72
2023/06/15 08:11:34;;;;;;;31.33;21.58;;;;;;;26.43;79.60;97910.56;4967210;28;20049;-72
2023/06/15 08:14:03;;;;;;;38.85;24.05;;;;;;;26.42;79.50;97916.31;4974481;28;20097;-71
2023/06/15 08:16:32;;;;;;;29.85;22.52;;;;;;;26.45;78.77;97905.63;4972754;28;20042;-71
2023/06/15 08:19:02;;;;;;;32.38;18.98;;;;;;;26.29;75.23;97867.22;4950730;28;20683;-72
2023/06/15 08:21:32;;;;;;;25.08;17.85;;;;;;;26.43;76.93;97866.28;4969381;28;20512;-72
2023/06/15 08:24:01;;;;;;;26.00;18.95;;;;;;;26.54;78.42;97873.84;4968072;28;20039;-71
2023/06/15 08:26:31;;;;;;;25.80;19.05;;;;;;;26.60;80.69;97860.94;4947980;28;20046;-71
2023/06/15 08:29:01;;;;;;;28.17;18.70;;;;;;;26.47;76.70;97857.19;4974521;28;20057;-71
2023/06/15 08:31:50;;;;;;;27.90;18.40;;;;;;;26.62;76.54;97862.19;4968039;28;20378;-70
2023/06/15 08:34:20;;;;;;;30.83;18.77;;;;;;;26.75;76.79;97861.25;4623674;28;10000582;-69
2023/06/15 08:36:50;;;;;;;30.38;19.23;;;;;;;26.89;76.28;97844.84;4963173;28;20050;-70
2023/06/15 08:39:19;;;;;;;28.33;19.20;;;;;;;27.10;75.82;97858.59;4965287;28;20058;-70
2023/06/15 08:41:50;;;;;;;33.22;22.77;;;;;;;27.29;73.94;97858.25;4968774;28;20125;-68
2023/06/15 08:44:21;;;;;;;26.02;18.98;;;;;;;27.29;69.85;97859.06;4974328;28;20047;-69
2023/06/15 08:46:51;;;;;;;23.83;16.02;;;;;;;27.51;70.67;97858.91;4970565;28;20146;-68
2023/06/15 08:49:21;;;;;;;27.83;13.50;;;;;;;27.59;69.26;97860.00;4955929;28;20050;-68
2023/06/15 08:51:52;;;;;;;21.10;12.88;;;;;;;27.61;69.29;97857.75;4969787;28;20094;-69
2023/06/15 08:54:22;;;;;;;17.08;11.52;;;;;;;27.65;68.95;97853.28;4950345;28;20058;-69
2023/06/15 08:56:52;;;;;;;22.55;13.10;;;;;;;27.69;71.22;97862.38;4969797;28;20049;-69
2023/06/15 08:59:21;;;;;;;20.58;11.93;;;;;;;27.74;71.34;97855.97;4973126;28;20061;-69
2023/06/15 09:01:54;;;;;;;20.48;11.75;;;;;;;27.82;70.26;97857.84;4970177;28;20057;-70
2023/06/15 09:04:28;;;;;;;23.00;13.40;;;;;;;27.76;68.72;97854.50;4952511;28;20738;-68
2023/06/15 09:06:58;;;;;;;18.00;11.50;;;;;;;27.93;69.18;97854.44;4967829;28;20061;-69
2023/06/15 09:09:27;;;;;;;15.23;9.38;;;;;;;28.00;67.87;97845.78;4963083;28;20046;-68
2023/06/15 09:11:57;;;;;;;20.17;8.88;;;;;;;28.00;68.84;97834.91;4961659;28;20050;-69
2023/06/15 09:14:27;;;;;;;14.52;8.98;;;;;;;27.96;69.64;97836.69;4965980;28;20053;-69
2023/06/15 09:16:56;;;;;;;15.90;9.15;;;;;;;27.89;70.43;97837.16;4967846;28;20043;-68
2023/06/15 09:19:26;;;;;;;13.80;9.02;;;;;;;27.90;68.49;97836.06;4954535;28;20051;-68
2023/06/15 09:21:56;;;;;;;15.82;7.75;;;;;;;27.89;69.17;97839.09;4950938;28;20062;-67
2023/06/15 09:24:26;;;;;;;15.07;8.60;;;;;;;27.90;68.75;97821.63;4965855;28;20046;-66
2023/06/15 09:26:56;;;;;;;19.15;9.43;;;;;;;27.92;69.09;97827.56;4968645;28;20046;-67
2023/06/15 09:29:26;;;;;;;17.25;9.05;;;;;;;27.87;69.86;97822.31;4931444;28;20042;-67
2023/06/15 09:31:55;;;;;;;18.85;8.70;;;;;;;27.86;70.24;97813.34;4948679;28;20371;-67
2023/06/15 09:34:25;;;;;;;15.70;8.85;;;;;;;27.88;69.78;97813.78;4954346;28;20134;-68
2023/06/15 09:36:54;;;;;;;19.17;10.60;;;;;;;27.88;70.17;97810.28;4967467;28;20116;-67
2023/06/15 09:39:24;;;;;;;14.98;9.43;;;;;;;27.88;69.42;97796.69;4956710;28;20050;-69
2023/06/15 09:42:01;;;;;;;16.17;9.73;;;;;;;27.85;68.86;97784.50;4940824;28;20058;-67
2023/06/15 09:44:33;;;;;;;16.23;9.82;;;;;;;27.87;69.72;97784.19;4972344;28;20077;-68
2023/06/15 09:47:03;;;;;;;21.45;11.10;;;;;;;27.97;68.88;97783.84;4969191;28;20142;-70
2023/06/15 09:49:32;;;;;;;20.33;12.07;;;;;;;28.00;69.40;97770.38;4969492;28;20526;-68
2023/06/15 09:52:02;;;;;;;22.90;14.50;;;;;;;28.09;69.86;97770.31;4954584;28;20125;-71
2023/06/15 09:54:32;;;;;;;24.23;15.48;;;;;;;28.18;69.44;97768.38;4972774;28;20124;-68
2023/06/15 09:57:02;;;;;;;28.08;17.05;;;;;;;28.26;69.29;97762.06;4962413;28;20053;-67
2023/06/15 09:59:32;;;;;;;26.27;17.05;;;;;;;28.37;69.45;97762.50;4954485;28;20058;-68
2023/06/15 10:02:10;;;;;;;27.50;17.98;;;;;;;28.44;70.41;97751.84;4939020;28;20050;-70
2023/06/15 10:04:42;;;;;;;27.98;17.08;;;;;;;28.59;68.28;97753.97;4970508;28;20074;-70
2023/06/15 10:07:13;;;;;;;24.08;15.00;;;;;;;28.63;65.69;97754.91;4968306;28;20050;-69
2023/06/15 10:09:48;;;;;;;24.67;14.73;;;;;;;28.59;67.51;97752.03;4973666;28;20058;-69
2023/06/15 10:12:22;;;;;;;24.58;14.57;;;;;;;28.67;66.96;97752.31;4960060;28;20047;-70
2023/06/15 10:15:15;;;;;;;26.13;15.77;;;;;;;28.67;68.06;97757.75;4957343;28;20129;-68
2023/06/15 10:17:50;;;;;;;23.70;14.85;;;;;;;28.63;68.19;97757.63;4953995;28;20074;-70
2023/06/15 10:20:26;;;;;;;22.55;14.57;;;;;;;28.57;67.66;97753.50;4951084;28;20051;-70
2023/06/15 10:23:07;;;;;;;28.95;14.68;;;;;;;28.43;68.97;97748.31;4972538;28;20046;-69
2023/06/15 10:25:36;;;;;;;25.00;13.85;;;;;;;28.40;69.02;97737.28;4974078;28;20039;-69
2023/06/15 10:28:13;;;;;;;24.40;12.15;;;;;;;28.37;70.17;97743.41;4969917;28;20050;-69
2023/06/15 10:31:02;;;;;;;18.73;10.90;;;;;;;28.42;70.53;97743.19;4963124;28;20059;-68
2023/06/15 10:33:40;;;;;;;21.10;11.70;;;;;;;28.48;69.49;97734.50;4966279;28;20050;-69
2023/06/15 10:36:13;;;;;;;20.00;11.45;;;;;;;28.58;68.34;97731.38;4964832;28;20534;-69
2023/06/15 10:39:05;;;;;;;21.67;13.15;;;;;;;28.61;68.98;97737.28;4964784;28;20061;-68
2023/06/15 10:41:36;;;;;;;24.47;12.83;;;;;;;28.69;67.28;97737.22;4967692;28;20069;-69
2023/06/15 10:44:06;;;;;;;31.00;13.52;;;;;;;28.69;68.92;97745.38;4968156;28;20129;-71
2023/06/15 10:46:36;;;;;;;21.20;12.85;;;;;;;28.80;66.98;97743.09;4976752;28;20121;-71
2023/06/15 10:49:10;;;;;;;29.75;12.77;;;;;;;28.75;67.18;97749.53;4979587;28;20058;-69
2023/06/15 10:51:59;;;;;;;17.52;12.32;;;;;;;28.88;65.74;97748.47;4979910;28;20116;-72
2023/06/15 10:54:29;;;;;;;24.58;13.85;;;;;;;28.85;67.83;97743.69;4980856;28;20065;-70
2023/06/15 10:56:58;;;;;;;22.50;12.52;;;;;;;28.84;67.66;97741.28;4984771;28;20482;-70
2023/06/15 10:59:48;;;;;;;22.25;12.93;;;;;;;28.85;66.67;97738.25;4985707;28;20078;-70
2023/06/15 11:02:31;;;;;;;17.10;10.77;;;;;;;28.84;67.96;97739.38;4976891;28;20050;-71
2023/06/15 11:05:01;;;;;;;18.42;10.05;;;;;;;28.81;68.48;97739.25;4964369;28;20058;-71
2023/06/15 11:07:35;;;;;;;12.70;8.40;;;;;;;28.77;70.26;97730.13;4965458;28;20046;-68
2023/06/15 11:10:21;;;;;;;14.30;7.55;;;;;;;28.76;69.15;97723.09;4980600;28;20516;-71
2023/06/15 11:13:05;;;;;;;11.52;7.18;;;;;;;28.77;68.27;97719.22;4980714;28;20046;-72
2023/06/15 11:15:37;;;;;;;15.57;6.80;;;;;;;28.75;68.32;97722.28;4975816;28;20050;-72
2023/06/15 11:18:17;;;;;;;14.07;8.02;;;;;;;28.76;68.88;97717.63;4979602;28;20130;-71
2023/06/15 11:20:54;;;;;;;16.45;9.38;;;;;;;28.74;68.22;97709.00;4975265;28;20054;-69
2023/06/15 11:23:26;;;;;;;13.82;8.65;;;;;;;28.67;69.34;97706.78;4959905;28;20430;-69
2023/06/15 11:25:57;;;;;;;18.23;9.00;;;;;;;28.70;70.70;97708.03;4965189;28;20050;-68
2023/06/15 11:28:33;;;;;;;15.13;8.15;;;;;;;28.70;68.84;97699.84;4975852;28;20039;-69
2023/06/15 11:31:07;;;;;;;13.35;7.93;;;;;;;28.67;67.75;97700.53;4975731;28;20394;-70
2023/06/15 11:33:40;;;;;;;13.00;8.10;;;;;;;28.71;65.56;97698.75;4977760;28;20042;-69
2023/06/15 11:36:11;;;;;;;13.85;8.70;;;;;;;28.69;67.38;97699.06;4976977;28;20504;-69
2023/06/15 11:38:41;;;;;;;15.68;9.00;;;;;;;28.64;68.45;97693.00;4968729;28;20137;-68
2023/06/15 11:41:11;;;;;;;14.60;8.95;;;;;;;28.56;69.31;97691.97;4974486;28;20050;-69
2023/06/15 11:43:47;;;;;;;18.05;9.13;;;;;;;28.62;70.16;97679.75;4975297;28;20166;-69
2023/06/15 11:46:21;;;;;;;13.93;9.00;;;;;;;28.62;71.85;97684.38;4965463;28;20465;-68
2023/06/15 11:48:58;;;;;;;12.55;9.00;;;;;;;28.61;71.84;97688.25;4976529;28;20541;-68